sensor_id;sensor_type;location;lat;lon;timestamp;pressure;altitude;pressure_sealevel;temperature;humidity
69145;BME280;56251;50.324;17.574;2023-05-10T00:00:24;101962.41;;;8.26;68.41
69145;BME280;56251;50.324;17.574;2023-05-10T00:00:37;101961.63;;;8.26;68.39
69145;BME280;56251;50.324;17.574;2023-05-10T00:03:32;101954.66;;;8.19;68.61
69145;BME280;56251;50.324;17.574;2023-05-10T00:03:44;101953.60;;;8.12;68.74
69145;BME280;56251;50.324;17.574;2023-05-10T00:06:39;101947.81;;;8.09;69.07
69145;BME280;56251;50.324;17.574;2023-05-10T00:06:52;101951.64;;;8.09;69.06
69145;BME280;56251;50.324;17.574;2023-05-10T00:09:47;101946.92;;;8.13;69.07
69145;BME280;56251;50.324;17.574;2023-05-10T00:09:59;101942.59;;;8.12;69.09
69145;BME280;56251;50.324;17.574;2023-05-10T00:12:58;101946.01;;;8.06;69.17
69145;BME280;56251;50.324;17.574;2023-05-10T00:13:06;101944.52;;;8.05;69.23
69145;BME280;56251;50.324;17.574;2023-05-10T00:16:06;101943.86;;;8.12;69.04
69145;BME280;56251;50.324;17.574;2023-05-10T00:16:13;101945.59;;;8.13;69.04
69145;BME280;56251;50.324;17.574;2023-05-10T00:19:13;101943.60;;;8.15;68.95
69145;BME280;56251;50.324;17.574;2023-05-10T00:19:21;101945.77;;;8.15;68.96
69145;BME280;56251;50.324;17.574;2023-05-10T00:22:19;101943.37;;;8.08;69.14
69145;BME280;56251;50.324;17.574;2023-05-10T00:22:27;101942.70;;;8.06;69.16
69145;BME280;56251;50.324;17.574;2023-05-10T00:25:26;101942.98;;;7.86;70.10
69145;BME280;56251;50.324;17.574;2023-05-10T00:25:34;101943.58;;;7.87;70.07
69145;BME280;56251;50.324;17.574;2023-05-10T00:28:35;101940.73;;;8.02;69.51
69145;BME280;56251;50.324;17.574;2023-05-10T00:28:41;101938.80;;;8.02;69.52
69145;BME280;56251;50.324;17.574;2023-05-10T00:31:41;101938.99;;;7.97;69.41
69145;BME280;56251;50.324;17.574;2023-05-10T00:31:49;101934.94;;;7.98;69.41
69145;BME280;56251;50.324;17.574;2023-05-10T00:34:49;101937.40;;;7.95;69.33
69145;BME280;56251;50.324;17.574;2023-05-10T00:34:56;101934.60;;;7.96;69.31
69145;BME280;56251;50.324;17.574;2023-05-10T00:37:55;101936.20;;;7.92;69.55
69145;BME280;56251;50.324;17.574;2023-05-10T00:38:03;101934.70;;;7.91;69.55
69145;BME280;56251;50.324;17.574;2023-05-10T00:41:02;101933.54;;;7.92;69.42
69145;BME280;56251;50.324;17.574;2023-05-10T00:41:10;101931.70;;;7.93;69.44
69145;BME280;56251;50.324;17.574;2023-05-10T00:44:10;101932.48;;;7.92;69.33
69145;BME280;56251;50.324;17.574;2023-05-10T00:44:18;101934.44;;;7.92;69.36
69145;BME280;56251;50.324;17.574;2023-05-10T00:47:18;101928.70;;;7.88;69.18
69145;BME280;56251;50.324;17.574;2023-05-10T00:47:32;101926.02;;;7.84;69.27
69145;BME280;56251;50.324;17.574;2023-05-10T00:50:25;101929.78;;;7.78;69.69
69145;BME280;56251;50.324;17.574;2023-05-10T00:50:39;101925.26;;;7.72;69.76
69145;BME280;56251;50.324;17.574;2023-05-10T00:53:32;101923.84;;;7.78;69.79
69145;BME280;56251;50.324;17.574;2023-05-10T00:53:46;101923.23;;;7.78;69.76
69145;BME280;56251;50.324;17.574;2023-05-10T00:56:40;101919.43;;;7.91;69.19
69145;BME280;56251;50.324;17.574;2023-05-10T00:56:53;101920.81;;;7.90;69.18
69145;BME280;56251;50.324;17.574;2023-05-10T00:59:48;101919.46;;;7.83;69.04
69145;BME280;56251;50.324;17.574;2023-05-10T01:00:02;101919.41;;;7.84;69.07
69145;BME280;56251;50.324;17.574;2023-05-10T01:03:00;101921.30;;;7.83;68.98
69145;BME280;56251;50.324;17.574;2023-05-10T01:03:10;101923.08;;;7.83;69.02
69145;BME280;56251;50.324;17.574;2023-05-10T01:06:08;101920.58;;;7.90;68.86
69145;BME280;56251;50.324;17.574;2023-05-10T01:06:21;101917.48;;;7.87;68.80
69145;BME280;56251;50.324;17.574;2023-05-10T01:09:15;101921.32;;;7.94;68.63
69145;BME280;56251;50.324;17.574;2023-05-10T01:09:27;101915.22;;;7.94;68.62
69145;BME280;56251;50.324;17.574;2023-05-10T01:12:23;101915.59;;;7.87;68.65
69145;BME280;56251;50.324;17.574;2023-05-10T01:12:37;101914.27;;;7.89;68.57
69145;BME280;56251;50.324;17.574;2023-05-10T01:15:32;101915.70;;;7.94;68.08
69145;BME280;56251;50.324;17.574;2023-05-10T01:15:45;101916.88;;;7.95;68.12
69145;BME280;56251;50.324;17.574;2023-05-10T01:18:40;101913.77;;;7.98;67.80
69145;BME280;56251;50.324;17.574;2023-05-10T01:18:52;101916.95;;;7.99;67.82
69145;BME280;56251;50.324;17.574;2023-05-10T01:22:07;101917.31;;;7.97;67.69
69145;BME280;56251;50.324;17.574;2023-05-10T01:29:38;101913.17;;;7.95;67.51
69145;BME280;56251;50.324;17.574;2023-05-10T01:35:17;101909.25;;;7.88;67.74
69145;BME280;56251;50.324;17.574;2023-05-10T01:36:19;101908.63;;;7.83;67.95
69145;BME280;56251;50.324;17.574;2023-05-10T01:38:47;101911.27;;;7.76;68.31
69145;BME280;56251;50.324;17.574;2023-05-10T01:39:28;101911.38;;;7.76;68.32
69145;BME280;56251;50.324;17.574;2023-05-10T01:41:59;101913.30;;;7.69;68.61
69145;BME280;56251;50.324;17.574;2023-05-10T01:42:38;101911.90;;;7.63;68.76
69145;BME280;56251;50.324;17.574;2023-05-10T01:45:14;101912.40;;;7.60;69.06
69145;BME280;56251;50.324;17.574;2023-05-10T01:46:09;101909.11;;;7.57;69.00
69145;BME280;56251;50.324;17.574;2023-05-10T01:48:18;101912.82;;;7.53;69.17
69145;BME280;56251;50.324;17.574;2023-05-10T01:49:24;101913.85;;;7.50;69.23
69145;BME280;56251;50.324;17.574;2023-05-10T01:51:29;101912.83;;;7.44;69.38
69145;BME280;56251;50.324;17.574;2023-05-10T01:52:32;101913.44;;;7.44;69.30
69145;BME280;56251;50.324;17.574;2023-05-10T01:54:35;101913.23;;;7.44;69.20
69145;BME280;56251;50.324;17.574;2023-05-10T01:55:49;101907.93;;;7.37;69.43
69145;BME280;56251;50.324;17.574;2023-05-10T01:57:48;101908.66;;;7.29;69.82
69145;BME280;56251;50.324;17.574;2023-05-10T01:58:56;101911.75;;;7.25;70.02
69145;BME280;56251;50.324;17.574;2023-05-10T02:00:54;101914.88;;;7.30;70.03
69145;BME280;56251;50.324;17.574;2023-05-10T02:02:04;101915.48;;;7.28;69.99
69145;BME280;56251;50.324;17.574;2023-05-10T02:04:01;101919.34;;;7.21;70.28
69145;BME280;56251;50.324;17.574;2023-05-10T02:05:14;101913.34;;;7.30;69.98
69145;BME280;56251;50.324;17.574;2023-05-10T02:07:10;101915.31;;;7.28;69.90
69145;BME280;56251;50.324;17.574;2023-05-10T02:08:22;101913.32;;;7.28;69.93
69145;BME280;56251;50.324;17.574;2023-05-10T02:10:18;101911.18;;;7.25;69.99
69145;BME280;56251;50.324;17.574;2023-05-10T02:11:29;101909.30;;;7.24;70.02
69145;BME280;56251;50.324;17.574;2023-05-10T02:13:27;101907.81;;;7.25;69.96
69145;BME280;56251;50.324;17.574;2023-05-10T02:14:38;101910.77;;;7.26;69.96
69145;BME280;56251;50.324;17.574;2023-05-10T02:16:40;101911.01;;;7.30;69.71
69145;BME280;56251;50.324;17.574;2023-05-10T02:17:46;101913.05;;;7.34;69.52
69145;BME280;56251;50.324;17.574;2023-05-10T02:19:48;101911.41;;;7.36;69.50
69145;BME280;56251;50.324;17.574;2023-05-10T02:20:53;101909.08;;;7.37;69.44
69145;BME280;56251;50.324;17.574;2023-05-10T02:22:57;101907.81;;;7.28;69.71
69145;BME280;56251;50.324;17.574;2023-05-10T02:24:02;101907.58;;;7.24;69.90
69145;BME280;56251;50.324;17.574;2023-05-10T02:26:05;101907.29;;;7.19;70.13
69145;BME280;56251;50.324;17.574;2023-05-10T02:27:10;101906.25;;;7.22;70.05
69145;BME280;56251;50.324;17.574;2023-05-10T02:29:12;101907.29;;;7.19;70.09
69145;BME280;56251;50.324;17.574;2023-05-10T02:30:19;101903.55;;;7.18;70.16
69145;BME280;56251;50.324;17.574;2023-05-10T02:32:21;101904.75;;;7.13;70.20
69145;BME280;56251;50.324;17.574;2023-05-10T02:33:26;101902.66;;;7.07;70.43
69145;BME280;56251;50.324;17.574;2023-05-10T02:35:29;101901.99;;;7.03;70.75
69145;BME280;56251;50.324;17.574;2023-05-10T02:36:36;101902.46;;;7.11;70.37
69145;BME280;56251;50.324;17.574;2023-05-10T02:38:37;101899.89;;;7.08;70.54
69145;BME280;56251;50.324;17.574;2023-05-10T02:39:44;101898.89;;;7.06;70.62
69145;BME280;56251;50.324;17.574;2023-05-10T02:41:45;101898.18;;;7.09;70.54
69145;BME280;56251;50.324;17.574;2023-05-10T02:42:52;101899.29;;;7.10;70.48
69145;BME280;56251;50.324;17.574;2023-05-10T02:44:57;101897.62;;;7.08;70.36
69145;BME280;56251;50.324;17.574;2023-05-10T02:45:59;101893.06;;;7.08;70.29
69145;BME280;56251;50.324;17.574;2023-05-10T02:48:00;101899.43;;;7.04;70.52
69145;BME280;56251;50.324;17.574;2023-05-10T02:49:07;101898.77;;;7.07;70.37
69145;BME280;56251;50.324;17.574;2023-05-10T02:51:07;101899.92;;;6.93;70.53
69145;BME280;56251;50.324;17.574;2023-05-10T02:52:18;101902.20;;;7.04;70.34
69145;BME280;56251;50.324;17.574;2023-05-10T02:54:19;101903.12;;;7.20;69.62
69145;BME280;56251;50.324;17.574;2023-05-10T02:55:26;101900.84;;;7.16;69.71
69145;BME280;56251;50.324;17.574;2023-05-10T02:57:28;101899.32;;;7.16;69.72
69145;BME280;56251;50.324;17.574;2023-05-10T02:58:33;101899.42;;;7.21;69.62
69145;BME280;56251;50.324;17.574;2023-05-10T03:00:35;101900.48;;;7.26;69.46
69145;BME280;56251;50.324;17.574;2023-05-10T03:01:39;101900.66;;;7.16;69.62
69145;BME280;56251;50.324;17.574;2023-05-10T03:03:42;101894.45;;;7.20;69.49
69145;BME280;56251;50.324;17.574;2023-05-10T03:04:45;101896.20;;;7.21;69.30
69145;BME280;56251;50.324;17.574;2023-05-10T03:06:48;101897.62;;;7.19;69.47
69145;BME280;56251;50.324;17.574;2023-05-10T03:07:53;101899.13;;;7.20;69.41
69145;BME280;56251;50.324;17.574;2023-05-10T03:09:56;101899.08;;;7.08;69.77
69145;BME280;56251;50.324;17.574;2023-05-10T03:11:16;101897.79;;;7.08;69.74
69145;BME280;56251;50.324;17.574;2023-05-10T03:13:16;101896.75;;;7.13;69.57
69145;BME280;56251;50.324;17.574;2023-05-10T03:16:32;101897.77;;;7.14;69.54
69145;BME280;56251;50.324;17.574;2023-05-10T03:17:43;101898.81;;;7.13;69.49
69145;BME280;56251;50.324;17.574;2023-05-10T03:19:47;101895.65;;;7.13;69.52
69145;BME280;56251;50.324;17.574;2023-05-10T03:20:49;101897.78;;;7.15;69.50
69145;BME280;56251;50.324;17.574;2023-05-10T03:22:47;101897.44;;;7.26;69.16
69145;BME280;56251;50.324;17.574;2023-05-10T03:24:04;101897.23;;;7.27;69.04
69145;BME280;56251;50.324;17.574;2023-05-10T03:25:54;101894.23;;;7.27;69.01
69145;BME280;56251;50.324;17.574;2023-05-10T03:27:07;101894.56;;;7.28;69.00
69145;BME280;56251;50.324;17.574;2023-05-10T03:29:02;101897.48;;;7.25;69.06
69145;BME280;56251;50.324;17.574;2023-05-10T03:30:14;101897.53;;;7.26;69.05
69145;BME280;56251;50.324;17.574;2023-05-10T03:32:10;101900.48;;;7.27;68.99
69145;BME280;56251;50.324;17.574;2023-05-10T03:33:21;101894.10;;;7.25;69.10
69145;BME280;56251;50.324;17.574;2023-05-10T03:35:16;101895.47;;;7.31;68.83
69145;BME280;56251;50.324;17.574;2023-05-10T03:36:27;101896.66;;;7.29;68.90
69145;BME280;56251;50.324;17.574;2023-05-10T03:38:22;101886.38;;;7.38;68.49
69145;BME280;56251;50.324;17.574;2023-05-10T03:39:33;101890.20;;;7.25;68.89
69145;BME280;56251;50.324;17.574;2023-05-10T03:41:30;101884.70;;;7.18;69.09
69145;BME280;56251;50.324;17.574;2023-05-10T03:42:41;101888.06;;;7.27;68.79
69145;BME280;56251;50.324;17.574;2023-05-10T03:44:36;101888.39;;;7.14;67.97
69145;BME280;56251;50.324;17.574;2023-05-10T03:45:47;101886.84;;;7.16;68.07
69145;BME280;56251;50.324;17.574;2023-05-10T03:47:44;101883.12;;;7.14;67.96
69145;BME280;56251;50.324;17.574;2023-05-10T03:48:55;101887.07;;;7.08;67.79
69145;BME280;56251;50.324;17.574;2023-05-10T03:50:50;101882.02;;;7.17;67.17
69145;BME280;56251;50.324;17.574;2023-05-10T03:52:01;101887.34;;;7.27;67.39
69145;BME280;56251;50.324;17.574;2023-05-10T03:53:56;101891.41;;;7.29;67.23
69145;BME280;56251;50.324;17.574;2023-05-10T03:55:09;101884.88;;;7.37;67.37
69145;BME280;56251;50.324;17.574;2023-05-10T03:57:03;101884.50;;;7.35;67.61
69145;BME280;56251;50.324;17.574;2023-05-10T03:58:17;101883.63;;;7.44;67.16
69145;BME280;56251;50.324;17.574;2023-05-10T04:00:10;101881.93;;;7.50;66.46
69145;BME280;56251;50.324;17.574;2023-05-10T04:01:25;101881.16;;;7.58;66.65
69145;BME280;56251;50.324;17.574;2023-05-10T04:03:18;101885.53;;;7.66;66.56
69145;BME280;56251;50.324;17.574;2023-05-10T04:04:31;101885.11;;;7.69;66.38
69145;BME280;56251;50.324;17.574;2023-05-10T04:06:25;101884.66;;;7.73;66.02
69145;BME280;56251;50.324;17.574;2023-05-10T04:07:45;101884.16;;;7.71;66.56
69145;BME280;56251;50.324;17.574;2023-05-10T04:09:33;101886.52;;;7.87;66.46
69145;BME280;56251;50.324;17.574;2023-05-10T04:10:53;101878.66;;;8.04;65.83
69145;BME280;56251;50.324;17.574;2023-05-10T04:12:39;101875.46;;;8.17;65.81
69145;BME280;56251;50.324;17.574;2023-05-10T04:14:01;101880.23;;;8.29;65.16
69145;BME280;56251;50.324;17.574;2023-05-10T04:15:46;101880.64;;;8.30;63.80
69145;BME280;56251;50.324;17.574;2023-05-10T04:17:08;101881.66;;;8.52;64.02
69145;BME280;56251;50.324;17.574;2023-05-10T04:18:53;101882.80;;;8.63;62.92
69145;BME280;56251;50.324;17.574;2023-05-10T04:20:16;101882.94;;;8.66;63.13
69145;BME280;56251;50.324;17.574;2023-05-10T04:21:59;101880.15;;;8.63;63.24
69145;BME280;56251;50.324;17.574;2023-05-10T04:23:22;101881.13;;;8.71;63.23
69145;BME280;56251;50.324;17.574;2023-05-10T04:25:07;101880.84;;;8.80;63.05
69145;BME280;56251;50.324;17.574;2023-05-10T04:26:28;101879.70;;;8.95;62.86
69145;BME280;56251;50.324;17.574;2023-05-10T04:28:14;101876.40;;;9.03;62.21
69145;BME280;56251;50.324;17.574;2023-05-10T04:29:35;101875.28;;;9.17;62.03
69145;BME280;56251;50.324;17.574;2023-05-10T04:31:22;101868.62;;;9.29;61.00
69145;BME280;56251;50.324;17.574;2023-05-10T04:32:41;101870.53;;;9.58;60.67
69145;BME280;56251;50.324;17.574;2023-05-10T04:34:29;101871.23;;;9.73;60.54
69145;BME280;56251;50.324;17.574;2023-05-10T04:35:47;101875.39;;;9.84;60.36
69145;BME280;56251;50.324;17.574;2023-05-10T04:37:43;101873.41;;;9.81;59.18
69145;BME280;56251;50.324;17.574;2023-05-10T04:38:55;101868.24;;;9.95;58.75
69145;BME280;56251;50.324;17.574;2023-05-10T04:40:50;101870.76;;;10.30;58.26
69145;BME280;56251;50.324;17.574;2023-05-10T04:42:02;101870.16;;;10.35;57.13
69145;BME280;56251;50.324;17.574;2023-05-10T04:43:58;101874.31;;;10.38;56.39
69145;BME280;56251;50.324;17.574;2023-05-10T04:45:11;101872.99;;;10.42;55.68
69145;BME280;56251;50.324;17.574;2023-05-10T04:47:05;101876.14;;;10.51;55.65
69145;BME280;56251;50.324;17.574;2023-05-10T04:48:17;101875.85;;;10.59;55.63
69145;BME280;56251;50.324;17.574;2023-05-10T04:50:12;101878.14;;;10.59;54.85
69145;BME280;56251;50.324;17.574;2023-05-10T04:51:24;101878.31;;;10.76;54.75
69145;BME280;56251;50.324;17.574;2023-05-10T04:53:20;101878.65;;;10.92;53.76
69145;BME280;56251;50.324;17.574;2023-05-10T04:54:32;101880.04;;;11.21;53.27
69145;BME280;56251;50.324;17.574;2023-05-10T04:56:26;101877.62;;;11.46;52.34
69145;BME280;56251;50.324;17.574;2023-05-10T04:57:39;101881.77;;;11.65;52.19
69145;BME280;56251;50.324;17.574;2023-05-10T04:59:35;101878.55;;;11.83;51.37
69145;BME280;56251;50.324;17.574;2023-05-10T05:00:46;101876.70;;;11.80;51.25
69145;BME280;56251;50.324;17.574;2023-05-10T05:02:43;101867.79;;;11.99;50.51
69145;BME280;56251;50.324;17.574;2023-05-10T05:03:53;101877.64;;;11.95;50.62
69145;BME280;56251;50.324;17.574;2023-05-10T05:05:50;101872.62;;;12.09;50.61
69145;BME280;56251;50.324;17.574;2023-05-10T05:06:59;101871.38;;;12.30;50.24
69145;BME280;56251;50.324;17.574;2023-05-10T05:08:56;101874.42;;;12.67;50.27
69145;BME280;56251;50.324;17.574;2023-05-10T05:10:06;101873.54;;;12.85;49.87
69145;BME280;56251;50.324;17.574;2023-05-10T05:12:03;101875.30;;;13.07;49.20
69145;BME280;56251;50.324;17.574;2023-05-10T05:13:14;101873.95;;;13.12;49.06
69145;BME280;56251;50.324;17.574;2023-05-10T05:15:09;101874.19;;;13.33;48.58
69145;BME280;56251;50.324;17.574;2023-05-10T05:16:22;101875.02;;;13.22;48.22
69145;BME280;56251;50.324;17.574;2023-05-10T05:18:16;101874.09;;;13.31;48.63
69145;BME280;56251;50.324;17.574;2023-05-10T05:19:30;101871.73;;;13.34;48.45
69145;BME280;56251;50.324;17.574;2023-05-10T05:21:22;101879.87;;;13.08;48.84
69145;BME280;56251;50.324;17.574;2023-05-10T05:22:37;101879.63;;;13.06;49.48
69145;BME280;56251;50.324;17.574;2023-05-10T05:24:34;101873.36;;;13.12;49.34
69145;BME280;56251;50.324;17.574;2023-05-10T05:25:43;101873.45;;;13.26;49.15
69145;BME280;56251;50.324;17.574;2023-05-10T05:27:39;101871.36;;;13.13;49.53
69145;BME280;56251;50.324;17.574;2023-05-10T05:28:50;101871.02;;;13.14;49.82
69145;BME280;56251;50.324;17.574;2023-05-10T05:30:45;101872.20;;;13.28;49.69
69145;BME280;56251;50.324;17.574;2023-05-10T05:31:58;101871.33;;;13.39;49.26
69145;BME280;56251;50.324;17.574;2023-05-10T05:33:52;101876.54;;;13.62;48.83
69145;BME280;56251;50.324;17.574;2023-05-10T05:35:07;101870.04;;;13.59;47.55
69145;BME280;56251;50.324;17.574;2023-05-10T05:36:59;101867.27;;;13.47;47.04
69145;BME280;56251;50.324;17.574;2023-05-10T05:38:13;101865.70;;;13.45;47.37
69145;BME280;56251;50.324;17.574;2023-05-10T05:40:07;101867.33;;;13.56;46.69
69145;BME280;56251;50.324;17.574;2023-05-10T05:41:19;101866.13;;;13.49;47.07
69145;BME280;56251;50.324;17.574;2023-05-10T05:43:15;101864.19;;;13.94;46.13
69145;BME280;56251;50.324;17.574;2023-05-10T05:44:33;101863.44;;;14.46;45.02
69145;BME280;56251;50.324;17.574;2023-05-10T05:46:21;101858.71;;;15.19;44.26
69145;BME280;56251;50.324;17.574;2023-05-10T05:47:40;101865.37;;;15.58;42.87
69145;BME280;56251;50.324;17.574;2023-05-10T05:49:29;101853.75;;;16.15;41.34
69145;BME280;56251;50.324;17.574;2023-05-10T05:50:46;101853.78;;;16.07;40.54
69145;BME280;56251;50.324;17.574;2023-05-10T05:52:36;101847.39;;;16.96;39.62
69145;BME280;56251;50.324;17.574;2023-05-10T05:53:52;101848.20;;;17.30;38.70
69145;BME280;56251;50.324;17.574;2023-05-10T05:55:53;101849.95;;;17.79;38.12
69145;BME280;56251;50.324;17.574;2023-05-10T05:57:00;101850.19;;;17.87;37.85
69145;BME280;56251;50.324;17.574;2023-05-10T05:59:01;101845.85;;;18.41;37.14
69145;BME280;56251;50.324;17.574;2023-05-10T06:00:07;101848.80;;;18.83;36.63
69145;BME280;56251;50.324;17.574;2023-05-10T06:02:12;101849.01;;;18.88;35.83
69145;BME280;56251;50.324;17.574;2023-05-10T06:03:19;101853.04;;;18.85;35.90
69145;BME280;56251;50.324;17.574;2023-05-10T06:05:18;101853.24;;;19.26;35.15
69145;BME280;56251;50.324;17.574;2023-05-10T06:06:26;101847.48;;;19.38;35.03
69145;BME280;56251;50.324;17.574;2023-05-10T06:08:26;101845.26;;;19.22;34.96
69145;BME280;56251;50.324;17.574;2023-05-10T06:09:33;101844.63;;;19.29;35.07
69145;BME280;56251;50.324;17.574;2023-05-10T06:11:34;101840.29;;;19.64;34.61
69145;BME280;56251;50.324;17.574;2023-05-10T06:12:41;101845.12;;;19.81;34.22
69145;BME280;56251;50.324;17.574;2023-05-10T06:14:40;101837.39;;;19.86;34.51
69145;BME280;56251;50.324;17.574;2023-05-10T06:15:47;101844.41;;;20.13;33.98
69145;BME280;56251;50.324;17.574;2023-05-10T06:17:48;101839.39;;;20.38;33.53
69145;BME280;56251;50.324;17.574;2023-05-10T06:18:53;101836.52;;;20.59;33.24
69145;BME280;56251;50.324;17.574;2023-05-10T06:20:59;101840.91;;;20.37;32.88
69145;BME280;56251;50.324;17.574;2023-05-10T06:22:05;101835.45;;;20.63;32.95
69145;BME280;56251;50.324;17.574;2023-05-10T06:24:07;101842.95;;;21.12;32.57
69145;BME280;56251;50.324;17.574;2023-05-10T06:25:13;101839.91;;;21.10;32.38
69145;BME280;56251;50.324;17.574;2023-05-10T06:27:15;101835.69;;;20.90;32.35
69145;BME280;56251;50.324;17.574;2023-05-10T06:28:20;101843.34;;;21.00;32.50
69145;BME280;56251;50.324;17.574;2023-05-10T06:30:21;101838.46;;;21.02;32.18
69145;BME280;56251;50.324;17.574;2023-05-10T06:31:28;101843.53;;;21.08;31.91
69145;BME280;56251;50.324;17.574;2023-05-10T06:33:29;101839.39;;;20.96;31.99
69145;BME280;56251;50.324;17.574;2023-05-10T06:34:36;101840.80;;;20.91;32.30
69145;BME280;56251;50.324;17.574;2023-05-10T06:36:35;101838.10;;;20.62;32.45
69145;BME280;56251;50.324;17.574;2023-05-10T06:37:43;101836.98;;;20.71;32.44
69145;BME280;56251;50.324;17.574;2023-05-10T06:39:47;101836.87;;;20.55;32.99
69145;BME280;56251;50.324;17.574;2023-05-10T06:40:53;101839.69;;;20.57;33.30
69145;BME280;56251;50.324;17.574;2023-05-10T06:42:54;101827.21;;;20.74;32.69
69145;BME280;56251;50.324;17.574;2023-05-10T06:43:59;101836.98;;;20.95;32.67
69145;BME280;56251;50.324;17.574;2023-05-10T06:46:01;101829.45;;;20.48;32.98
69145;BME280;56251;50.324;17.574;2023-05-10T06:47:06;101835.20;;;20.40;33.00
69145;BME280;56251;50.324;17.574;2023-05-10T06:49:08;101839.12;;;19.97;33.62
69145;BME280;56251;50.324;17.574;2023-05-10T06:50:13;101831.07;;;19.92;33.96
69145;BME280;56251;50.324;17.574;2023-05-10T06:52:14;101833.02;;;19.96;33.91
69145;BME280;56251;50.324;17.574;2023-05-10T06:53:19;101842.65;;;19.86;34.02
69145;BME280;56251;50.324;17.574;2023-05-10T06:55:20;101829.34;;;19.59;34.78
69145;BME280;56251;50.324;17.574;2023-05-10T06:56:25;101829.05;;;19.58;34.63
69145;BME280;56251;50.324;17.574;2023-05-10T06:58:26;101829.17;;;19.46;35.19
69145;BME280;56251;50.324;17.574;2023-05-10T06:59:33;101826.47;;;19.62;35.27
69145;BME280;56251;50.324;17.574;2023-05-10T07:01:35;101830.79;;;19.46;35.32
69145;BME280;56251;50.324;17.574;2023-05-10T07:02:39;101827.22;;;19.19;35.80
69145;BME280;56251;50.324;17.574;2023-05-10T07:04:42;101830.23;;;19.26;36.07
69145;BME280;56251;50.324;17.574;2023-05-10T07:05:47;101822.40;;;19.36;35.99
69145;BME280;56251;50.324;17.574;2023-05-10T07:07:48;101819.79;;;19.63;35.39
69145;BME280;56251;50.324;17.574;2023-05-10T07:08:53;101817.90;;;19.82;35.58
69145;BME280;56251;50.324;17.574;2023-05-10T07:11:04;101816.66;;;20.06;35.16
69145;BME280;56251;50.324;17.574;2023-05-10T07:11:59;101820.10;;;19.95;35.37
69145;BME280;56251;50.324;17.574;2023-05-10T07:14:14;101817.81;;;19.79;35.45
69145;BME280;56251;50.324;17.574;2023-05-10T07:15:13;101815.08;;;19.64;35.53
69145;BME280;56251;50.324;17.574;2023-05-10T07:17:25;101815.88;;;19.67;36.00
69145;BME280;56251;50.324;17.574;2023-05-10T07:18:21;101812.96;;;19.74;36.17
69145;BME280;56251;50.324;17.574;2023-05-10T07:20:31;101811.73;;;19.68;36.10
69145;BME280;56251;50.324;17.574;2023-05-10T07:21:27;101822.17;;;19.89;36.30
69145;BME280;56251;50.324;17.574;2023-05-10T07:23:39;101814.79;;;20.04;35.53
69145;BME280;56251;50.324;17.574;2023-05-10T07:24:35;101812.25;;;20.05;35.52
69145;BME280;56251;50.324;17.574;2023-05-10T07:26:45;101808.66;;;19.94;35.88
69145;BME280;56251;50.324;17.574;2023-05-10T07:27:41;101807.13;;;19.71;36.30
69145;BME280;56251;50.324;17.574;2023-05-10T07:29:51;101814.31;;;19.74;36.18
69145;BME280;56251;50.324;17.574;2023-05-10T07:30:47;101821.41;;;19.63;36.42
69145;BME280;56251;50.324;17.574;2023-05-10T07:32:57;101808.20;;;19.54;37.06
69145;BME280;56251;50.324;17.574;2023-05-10T07:33:59;101800.37;;;19.61;37.05
69145;BME280;56251;50.324;17.574;2023-05-10T07:36:05;101810.01;;;19.63;37.06
69145;BME280;56251;50.324;17.574;2023-05-10T07:37:06;101802.95;;;19.77;37.05
69145;BME280;56251;50.324;17.574;2023-05-10T07:39:11;101802.67;;;20.00;37.10
69145;BME280;56251;50.324;17.574;2023-05-10T07:40:13;101809.59;;;20.19;36.88
69145;BME280;56251;50.324;17.574;2023-05-10T07:42:18;101796.80;;;20.48;36.25
69145;BME280;56251;50.324;17.574;2023-05-10T07:43:20;101798.71;;;20.58;35.83
69145;BME280;56251;50.324;17.574;2023-05-10T07:45:26;101790.94;;;20.67;35.80
69145;BME280;56251;50.324;17.574;2023-05-10T07:46:26;101798.19;;;20.74;35.92
69145;BME280;56251;50.324;17.574;2023-05-10T07:48:33;101801.34;;;20.46;35.68
69145;BME280;56251;50.324;17.574;2023-05-10T07:49:34;101805.04;;;20.43;35.61
69145;BME280;56251;50.324;17.574;2023-05-10T07:51:43;101798.52;;;20.27;36.42
69145;BME280;56251;50.324;17.574;2023-05-10T07:52:41;101789.79;;;20.25;36.27
69145;BME280;56251;50.324;17.574;2023-05-10T07:54:49;101795.55;;;20.18;36.74
69145;BME280;56251;50.324;17.574;2023-05-10T07:55:51;101797.28;;;20.19;36.68
69145;BME280;56251;50.324;17.574;2023-05-10T07:57:57;101794.71;;;19.92;37.10
69145;BME280;56251;50.324;17.574;2023-05-10T07:59:00;101799.65;;;19.95;37.12
69145;BME280;56251;50.324;17.574;2023-05-10T08:01:04;101800.38;;;19.87;37.02
69145;BME280;56251;50.324;17.574;2023-05-10T08:02:06;101798.55;;;19.85;37.06
69145;BME280;56251;50.324;17.574;2023-05-10T08:04:10;101797.95;;;19.84;37.21
69145;BME280;56251;50.324;17.574;2023-05-10T08:05:12;101800.68;;;19.89;37.04
69145;BME280;56251;50.324;17.574;2023-05-10T08:07:18;101798.84;;;19.89;37.12
69145;BME280;56251;50.324;17.574;2023-05-10T08:08:20;101795.55;;;19.84;37.34
69145;BME280;56251;50.324;17.574;2023-05-10T08:10:24;101793.08;;;19.92;37.42
69145;BME280;56251;50.324;17.574;2023-05-10T08:11:29;101790.48;;;20.01;37.31
69145;BME280;56251;50.324;17.574;2023-05-10T08:13:31;101789.50;;;19.99;37.28
69145;BME280;56251;50.324;17.574;2023-05-10T08:14:36;101786.07;;;20.01;37.37
69145;BME280;56251;50.324;17.574;2023-05-10T08:16:37;101779.72;;;20.11;37.66
69145;BME280;56251;50.324;17.574;2023-05-10T08:17:45;101779.62;;;20.17;37.14
69145;BME280;56251;50.324;17.574;2023-05-10T08:19:44;101785.05;;;20.16;37.14